• Join FlightAware (Why Join?)
  • Login
  • US Flag 
09:33PM EDT


 

Airport Tracker/Info


-or-


 

Live Flight TrackerFlight Track Log ✈ ASQ6151 ✈ 15-May-2013 ✈ KSAV - KORD

Flight Track Log - Related Links

Times and Time Zones

All times are in EDT time to prevent confusion due to time zone crossing. See the ASQ6151 flight status page for this flight to view local times or setup timezone preferences in your user account.

Time Position Orientation Groundspeed Altitude Reporting Facility
EDT Latitude Longitude Course Direction KTS MPH feet Rate Location/Type
05:53PM 32.2272 -81.2792 North 280 322 5,100  Level Jacksonville Center
05:54PM 32.2936 -81.2411 26° Northeast 272 313 7,500 2,100 Climbing Jacksonville Center
05:55PM 32.3661 -81.2028 24° Northeast 272 313 9,300 1,500 Climbing Jacksonville Center
05:56PM 32.4472 -81.1792 14° North 283 326 10,600 1,140 Climbing Jacksonville Center
05:57PM 32.6578 -81.1500 North  Level FlightAware Approximate
05:57PM 32.5286 -81.1728 North 318 366 11,600  Level Jacksonville Center
05:58PM 32.7489 -81.1439 North  Level FlightAware Approximate
05:58PM 32.6328 -81.1658 North 333 383 13,000  Level Jacksonville Center
05:59PM 32.7225 -81.1517 North 344 396 14,200 1,200 Climbing Jacksonville Center
06:00PM 32.8225 -81.1450 North 349 402 15,400 1,200 Climbing Jacksonville Center
06:01PM 32.9289 -81.1331 North 349 402 16,700 1,200 Climbing Jacksonville Center
06:02PM 33.0289 -81.1286 North 349 402 17,800 1,020 Climbing Jacksonville Center
06:03PM 33.1311 -81.1167 North 354 407 18,800 1,020 Climbing Jacksonville Center
06:04PM 33.2375 -81.1094 North 366 421 19,900 1,080 Climbing Jacksonville Center
06:05PM 33.3417 -81.1000 North 366 421 21,000 1,080 Climbing Jacksonville Center
06:06PM 33.4481 -81.0928 North 371 427 22,100 1,080 Climbing Jacksonville Center
06:07PM 33.5583 -81.0806 North 384 442 23,200 900 Climbing Jacksonville Center
06:08PM 33.6667 -81.0733 North 384 442 24,000 360 Climbing Jacksonville Center
06:09PM 33.7667 -81.0614 North 389 448 24,000  Level Jacksonville Center
06:10PM 33.8878 -81.0664 358° North 408 470 24,000  Level Jacksonville Center
06:12PM 34.0836 -81.1444 342° North 427 491 24,000  Level Atlanta Center
06:13PM 34.1975 -81.1933 340° North 429 494 24,000  Level Atlanta Center
06:14PM 34.3069 -81.2372 342° North 429 494 24,000  Level Atlanta Center
06:15PM 34.4103 -81.2842 339° North 429 494 24,000  Level Atlanta Center
06:16PM 34.5325 -81.3283 343° North 429 494 24,000  Level Atlanta Center
06:17PM 34.6356 -81.3753 339° North 429 494 24,000  Level Atlanta Center
06:18PM 34.7578 -81.4272 341° North 434 499 24,000  Level Atlanta Center
06:19PM 34.8736 -81.4742 342° North 432 497 24,000  Level Atlanta Center
06:20PM 34.9872 -81.5186 342° North 426 490 24,000  Level Atlanta Center
06:21PM 35.0986 -81.5661 341° North 431 496 24,000  Level Atlanta Center
06:22PM 35.2125 -81.6161 340° North 425 489 24,000  Level Atlanta Center
06:23PM 35.3258 -81.6611 342° North 425 489 24,000  Level Atlanta Center
06:24PM 35.4394 -81.7089 341° North 431 496 24,000  Level Atlanta Center
06:25PM 35.5406 -81.7519 341° North 431 496 24,000  Level Atlanta Center
06:26PM 35.6561 -81.8025 340° North 431 496 24,000  Level Atlanta Center
06:27PM 35.7739 -81.8478 343° North 436 502 24,000  Level Atlanta Center
06:28PM 35.8894 -81.8958 341° North 436 502 24,000  Level Atlanta Center
06:29PM 36.0175 -81.9492 341° North 436 502 24,000  Level Atlanta Center
06:30PM 36.1311 -82.0000 340° North 436 502 24,000  Level Atlanta Center
06:31PM 36.2303 -82.0772 328° Northwest 431 496 24,000  Level Atlanta Center
06:32PM 36.3256 -82.1628 324° Northwest 420 483 24,000  Level Atlanta Center
06:33PM 36.4228 -82.2481 325° Northwest 430 495 24,000  Level Atlanta Center
06:34PM 36.5197 -82.3339 325° Northwest 430 495 24,000  Level Atlanta Center
06:36PM 36.7322 -82.5239 324° Northwest 428 493 24,000  Level Indianapolis Center
06:37PM 36.8292 -82.6111 324° Northwest 431 496 24,000  Level Indianapolis Center
06:38PM 36.9242 -82.6969 324° Northwest 426 490 24,000  Level Indianapolis Center
06:39PM 37.0194 -82.7825 324° Northwest 429 494 24,000  Level Indianapolis Center
06:40PM 37.1300 -82.8844 324° Northwest 429 494 24,000  Level Indianapolis Center
06:41PM 37.2258 -82.9725 324° Northwest 429 494 24,000  Level Indianapolis Center
06:42PM 37.3225 -83.0614 324° Northwest 430 495 24,000  Level Indianapolis Center
06:43PM 37.4194 -83.1497 324° Northwest 429 494 24,000  Level Indianapolis Center
06:44PM 37.5386 -83.2436 328° Northwest 433 498 24,000  Level Indianapolis Center
06:45PM 37.6414 -83.3253 328° Northwest 434 499 24,000  Level Indianapolis Center
06:46PM 37.7444 -83.4058 328° Northwest 436 502 24,000  Level Indianapolis Center
06:47PM 37.8475 -83.4878 328° Northwest 437 503 24,000  Level Indianapolis Center
06:48PM 37.9514 -83.5703 328° Northwest 440 506 24,000  Level Indianapolis Center
06:49PM 38.0717 -83.6656 328° Northwest 436 502 24,000  Level Indianapolis Center
06:50PM 38.1733 -83.7478 328° Northwest 432 497 24,000  Level Indianapolis Center
06:51PM 38.2742 -83.8283 328° Northwest 429 494 24,000  Level Indianapolis Center
06:52PM 38.3750 -83.9094 328° Northwest 427 491 24,000  Level Indianapolis Center
06:53PM 38.4750 -83.9908 328° Northwest 426 490 24,000  Level Indianapolis Center
06:54PM 38.5764 -84.0725 328° Northwest 429 494 24,000  Level Indianapolis Center
06:55PM 38.6858 -84.1631 327° Northwest 425 489 24,000  Level Indianapolis Center
06:57PM 38.7878 -84.2453 328° Northwest 427 491 24,000  Level Indianapolis Center
06:58PM 38.8886 -84.3289 327° Northwest 425 489 24,000  Level Indianapolis Center
06:59PM 38.9900 -84.4114 328° Northwest 425 489 24,000  Level Indianapolis Center
07:00PM 39.0900 -84.4950 327° Northwest 424 488 24,000  Level Indianapolis Center
07:01PM 39.2094 -84.5928 328° Northwest 433 498 24,000  Level Indianapolis Center
07:02PM 39.3086 -84.6742 328° Northwest 423 487 24,000 -60 Level Indianapolis Center
07:03PM 39.4044 -84.7522 328° Northwest 406 467 23,900  Descending Indianapolis Center
07:04PM 39.4900 -84.8233 327° Northwest 373 429 24,000  Climbing Indianapolis Center
07:05PM 39.5711 -84.8917 327° Northwest 352 405 23,900  Descending Indianapolis Center
07:06PM 39.6453 -84.9542 327° Northwest 343 395 24,000  Climbing Indianapolis Center
07:07PM 39.7481 -85.0431 326° Northwest 365 420 24,000  Level Indianapolis Center
07:08PM 39.8450 -85.1233 328° Northwest 402 463 24,000  Level Indianapolis Center
07:09PM 39.9406 -85.2047 327° Northwest 412 474 24,000  Level Indianapolis Center
07:10PM 40.0372 -85.2869 327° Northwest 415 478 24,000  Level Indianapolis Center
07:11PM 40.1311 -85.3672 327° Northwest 409 471 24,000  Level Indianapolis Center
07:12PM 40.2425 -85.4631 327° Northwest 404 465 24,000  Level Indianapolis Center
07:13PM 40.3361 -85.5419 327° Northwest 404 465 24,000  Level Chicago Center
07:14PM 40.4300 -85.6219 327° Northwest 405 466 24,000 -60 Level Chicago Center
07:15PM 40.5164 -85.7164 320° Northwest 410 472 23,900 -480 Descending Chicago Center
07:16PM 40.5872 -85.8375 308° West 422 486 23,100 -480 Descending Chicago Center
07:17PM 40.6544 -85.9528 308° West 410 472 23,000 -60 Descending Chicago Center
07:18PM 40.7264 -86.0775 307° West 405 466 23,000  Level Chicago Center
07:19PM 40.7964 -86.1986 307° West 410 472 23,000  Level Chicago Center
07:20PM 40.8817 -86.3458 307° West 418 481 23,000 -60 Level Chicago Center
07:21PM 40.9503 -86.4667 307° West 414 476 22,900 -960 Descending Chicago Center
07:22PM 41.0194 -86.5847 308° West 408 470 21,100 -1,860 Descending Chicago Center
07:23PM 41.0822 -86.6975 306° West 390 449 19,100 -2,100 Descending Chicago Center
07:24PM 41.1508 -86.8164 307° West 378 435 16,900 -2,040 Descending Chicago Center
07:25PM 41.2108 -86.9208 307° West 365 420 14,900 -1,980 Descending Chicago Center
07:26PM 41.2683 -87.0214 307° West 349 402 12,900 -1,800 Descending Chicago Center
07:28PM 41.3239 -87.1206 307° West 340 391 11,300 -960 Descending Chicago Center
07:29PM 41.3967 -87.2325 311° West 334 384 11,000 -240 Descending Chicago Center
07:29PM 41.4333 -87.2667 325° Northwest 338 389 11,000 -660 Level Chicago TRACON
07:30PM 41.5000 -87.3667 312° West 353 406 10,100 -660 Descending Chicago TRACON
07:31PM 41.5411 -87.4000 329° Northwest 350 403 10,000 -120 Descending Chicago Center
07:32PM 41.6128 -87.4806 320° Northwest 342 394 10,000 -300 Level Chicago Center
07:33PM 41.6894 -87.5633 321° Northwest 294 338 9,500 -780 Descending Chicago Center
07:34PM 41.7461 -87.6294 319° Northwest 275 316 8,500 -1,020 Descending Chicago Center
07:34PM 41.7667 -87.6500 323° Northwest 280 322 8,200 -1,020 Descending Chicago TRACON
07:35PM 41.8167 -87.7167 315° West 261 300 7,300 -660 Descending Chicago TRACON
07:36PM 41.8667 -87.7833 315° West 235 270 7,000 -180 Descending Chicago TRACON
07:37PM 41.8833 -87.8500 289° West 222 255 7,000 -60 Level Chicago TRACON
07:38PM 41.8833 -87.9167 270° West 196 226 6,900 -720 Descending Chicago TRACON
07:39PM 41.8833 -87.9833 270° West 195 224 5,700 -1,140 Descending Chicago TRACON
07:40PM 41.8833 -88.0667 270° West 187 215 4,600 -1,080 Descending Chicago TRACON
07:41PM 41.9000 -88.1167 294° West 189 217 3,500 -1,080 Descending Chicago TRACON
07:42PM 41.9500 -88.1000 14° North 200 230 2,600 -600 Descending Chicago TRACON
07:43PM 41.9667 -88.0333 71° East 179 206 2,300 -600 Descending Chicago TRACON
07:44PM 41.9667 -87.9833 90° East 139 160 1,400 -900 Descending Chicago TRACON